Bhojpur Airport


Codes: VNBJ/BHP
Name: Bhojpur Airport
City: Bhojpur
Country: Nepal
Elevation: 4000 ft.

Photos at Bhojpur Airport


   Photos courtesy of SpottingLog. You can add your own sightings and photos by signing up for a free trial today.



No photos found.

Weather at Bhojpur Airport


Time (UTC)DescriptionTempratureWindCloud coverageVisibilityPressureHumidity
23-May-2024 21:00Light Rain18°C4 mph, N77%10000m1009hPa81%
24-May-2024 00:00Broken Clouds18°C4 mph, N56%10000m1009hPa76%
24-May-2024 03:00Clear Sky24°C2 mph, SE6%10000m1009hPa51%
24-May-2024 06:00Light Rain27°C4 mph, S7%10000m1006hPa41%
24-May-2024 09:00Light Rain28°C4 mph, SW44%10000m1003hPa42%
24-May-2024 12:00Light Rain22°C7 mph, NW66%10000m1004hPa59%
24-May-2024 15:00Light Rain22°C4 mph, NW100%10000m1007hPa62%
24-May-2024 18:00Light Rain21°C4 mph, NW100%10000m1007hPa64%
24-May-2024 21:00Light Rain21°C4 mph, N100%10000m1005hPa67%
25-May-2024 00:00Overcast Clouds21°C4 mph, N100%10000m1006hPa63%
25-May-2024 03:00Overcast Clouds24°C2 mph, SE99%10000m1006hPa51%
25-May-2024 06:00Light Rain28°C2 mph, S92%10000m1005hPa42%
25-May-2024 09:00Light Rain27°C4 mph, W74%10000m1002hPa45%
25-May-2024 12:00Overcast Clouds24°C4 mph, NW87%10000m1003hPa56%
25-May-2024 15:00Overcast Clouds24°C2 mph, N100%10000m1005hPa53%
25-May-2024 18:00Overcast Clouds23°C2 mph, N99%10000m1005hPa55%
25-May-2024 21:00Light Rain20°C2 mph, SW94%10000m1005hPa67%
26-May-2024 00:00Light Rain20°C2 mph, N93%10000m1005hPa72%
26-May-2024 03:00Overcast Clouds23°C4 mph, S97%10000m1007hPa66%
26-May-2024 06:00Light Rain28°C7 mph, S68%10000m1004hPa48%
26-May-2024 09:00Light Rain28°C9 mph, S31%10000m1002hPa49%
26-May-2024 12:00Light Rain23°C7 mph, SW48%10000m1003hPa73%
26-May-2024 15:00Moderate Rain20°C2 mph, SW95%10000m1007hPa88%
26-May-2024 18:00Light Rain19°C2 mph, NE97%10000m1007hPa91%
26-May-2024 21:00Light Rain19°C2 mph, NE100%10000m1005hPa90%
27-May-2024 00:00Light Rain18°C4 mph, NE100%10000m1006hPa93%
27-May-2024 03:00Light Rain20°C4 mph, NE95%10000m1007hPa80%
27-May-2024 06:00Light Rain22°C2 mph, NE97%10000m1005hPa71%
27-May-2024 09:00Light Rain25°C2 mph, E89%9949m1002hPa58%
27-May-2024 12:00Light Rain23°C4 mph, SE87%10000m1002hPa72%
27-May-2024 15:00Light Rain20°C2 mph, NE83%10000m1004hPa83%
27-May-2024 18:00Light Rain20°C2 mph, E92%10000m1004hPa82%
27-May-2024 21:00Light Rain19°C4 mph, NE100%10000m1002hPa87%
28-May-2024 00:00Overcast Clouds19°C4 mph, NE96%10000m1002hPa85%
28-May-2024 03:00Overcast Clouds23°C4 mph, E92%10000m1003hPa64%
28-May-2024 06:00Overcast Clouds26°C4 mph, SE85%10000m1001hPa55%
28-May-2024 09:00Light Rain25°C7 mph, S95%10000m998hPa63%
28-May-2024 12:00Light Rain21°C4 mph, SW88%10000m999hPa79%
28-May-2024 15:00Light Rain20°C2 mph, NE93%10000m1001hPa87%
28-May-2024 18:00Light Rain19°C0 mph, NE89%10000m1001hPa90%